sensor_id;sensor_type;location;lat;lon;timestamp;pressure;altitude;pressure_sealevel;temperature;humidity
47080;BME280;33067;49.296;14.470;2023-02-14T00:01:21;98909.65;;;3.89;41.10
47080;BME280;33067;49.296;14.470;2023-02-14T00:03:45;98905.52;;;3.80;41.18
47080;BME280;33067;49.296;14.470;2023-02-14T00:06:12;98902.75;;;3.88;41.27
47080;BME280;33067;49.296;14.470;2023-02-14T00:08:36;98905.27;;;3.64;41.53
47080;BME280;33067;49.296;14.470;2023-02-14T00:11:01;98905.22;;;4.01;41.41
47080;BME280;33067;49.296;14.470;2023-02-14T00:13:27;98907.09;;;3.88;41.12
47080;BME280;33067;49.296;14.470;2023-02-14T00:15:53;98911.77;;;3.97;40.99
47080;BME280;33067;49.296;14.470;2023-02-14T00:18:19;98913.56;;;4.28;40.67
47080;BME280;33067;49.296;14.470;2023-02-14T00:20:44;98915.98;;;3.94;40.57
47080;BME280;33067;49.296;14.470;2023-02-14T00:23:09;98919.10;;;4.07;40.40
47080;BME280;33067;49.296;14.470;2023-02-14T00:25:34;98917.06;;;4.02;40.99
47080;BME280;33067;49.296;14.470;2023-02-14T00:28:00;98917.81;;;3.91;40.51
47080;BME280;33067;49.296;14.470;2023-02-14T00:30:25;98920.38;;;3.59;41.03
47080;BME280;33067;49.296;14.470;2023-02-14T00:32:50;98920.04;;;4.08;41.10
47080;BME280;33067;49.296;14.470;2023-02-14T00:35:16;98922.87;;;3.90;40.85
47080;BME280;33067;49.296;14.470;2023-02-14T00:37:41;98926.04;;;3.97;40.86
47080;BME280;33067;49.296;14.470;2023-02-14T00:40:07;98928.14;;;3.82;40.80
47080;BME280;33067;49.296;14.470;2023-02-14T00:42:32;98927.41;;;3.89;40.73
47080;BME280;33067;49.296;14.470;2023-02-14T00:44:59;98930.10;;;3.57;40.75
47080;BME280;33067;49.296;14.470;2023-02-14T00:47:23;98937.98;;;3.59;40.21
47080;BME280;33067;49.296;14.470;2023-02-14T00:49:50;98934.99;;;3.54;40.67
47080;BME280;33067;49.296;14.470;2023-02-14T00:52:14;98925.59;;;3.62;40.80
47080;BME280;33067;49.296;14.470;2023-02-14T00:54:39;98923.66;;;3.75;40.71
47080;BME280;33067;49.296;14.470;2023-02-14T00:57:04;98921.82;;;3.73;40.84
47080;BME280;33067;49.296;14.470;2023-02-14T00:59:30;98922.46;;;3.79;40.56
47080;BME280;33067;49.296;14.470;2023-02-14T01:01:57;98925.09;;;3.82;40.92
47080;BME280;33067;49.296;14.470;2023-02-14T01:04:22;98927.29;;;3.77;40.57
47080;BME280;33067;49.296;14.470;2023-02-14T01:06:46;98926.31;;;3.89;40.84
47080;BME280;33067;49.296;14.470;2023-02-14T01:09:12;98922.78;;;3.54;40.44
47080;BME280;33067;49.296;14.470;2023-02-14T01:11:38;98926.09;;;3.54;40.44
47080;BME280;33067;49.296;14.470;2023-02-14T01:14:03;98930.69;;;3.29;40.81
47080;BME280;33067;49.296;14.470;2023-02-14T01:16:29;98930.06;;;3.61;40.46
47080;BME280;33067;49.296;14.470;2023-02-14T01:18:54;98931.48;;;3.60;40.70
47080;BME280;33067;49.296;14.470;2023-02-14T01:21:21;98928.05;;;3.73;40.56
47080;BME280;33067;49.296;14.470;2023-02-14T01:23:46;98925.73;;;3.44;40.78
47080;BME280;33067;49.296;14.470;2023-02-14T01:26:11;98927.95;;;3.81;40.43
47080;BME280;33067;49.296;14.470;2023-02-14T01:28:36;98930.95;;;3.73;40.48
47080;BME280;33067;49.296;14.470;2023-02-14T01:31:07;98928.51;;;3.49;40.51
47080;BME280;33067;49.296;14.470;2023-02-14T01:33:27;98922.15;;;3.70;40.59
47080;BME280;33067;49.296;14.470;2023-02-14T01:35:52;98922.21;;;3.85;40.25
47080;BME280;33067;49.296;14.470;2023-02-14T01:38:18;98923.73;;;3.56;40.60
47080;BME280;33067;49.296;14.470;2023-02-14T01:40:44;98923.58;;;3.35;40.52
47080;BME280;33067;49.296;14.470;2023-02-14T01:43:14;98917.36;;;3.62;40.25
47080;BME280;33067;49.296;14.470;2023-02-14T01:45:35;98911.08;;;3.49;40.65
47080;BME280;33067;49.296;14.470;2023-02-14T01:48:01;98910.46;;;3.51;40.61
47080;BME280;33067;49.296;14.470;2023-02-14T01:50:30;98906.84;;;3.35;40.63
47080;BME280;33067;49.296;14.470;2023-02-14T01:52:54;98907.51;;;3.57;40.56
47080;BME280;33067;49.296;14.470;2023-02-14T01:55:19;98910.77;;;3.67;39.81
47080;BME280;33067;49.296;14.470;2023-02-14T01:57:47;98912.66;;;3.40;40.31
47080;BME280;33067;49.296;14.470;2023-02-14T02:00:09;98914.76;;;3.17;40.17
47080;BME280;33067;49.296;14.470;2023-02-14T02:02:34;98913.22;;;3.08;40.53
47080;BME280;33067;49.296;14.470;2023-02-14T02:04:58;98917.12;;;3.36;40.50
47080;BME280;33067;49.296;14.470;2023-02-14T02:07:25;98914.22;;;3.28;40.60
47080;BME280;33067;49.296;14.470;2023-02-14T02:09:53;98912.95;;;3.37;40.58
47080;BME280;33067;49.296;14.470;2023-02-14T02:12:14;98911.97;;;3.13;40.74
47080;BME280;33067;49.296;14.470;2023-02-14T02:14:40;98913.17;;;3.38;40.78
47080;BME280;33067;49.296;14.470;2023-02-14T02:17:19;98908.06;;;3.50;40.61
47080;BME280;33067;49.296;14.470;2023-02-14T02:22:15;98896.10;;;3.22;40.83
47080;BME280;33067;49.296;14.470;2023-02-14T02:24:32;98895.08;;;3.22;41.37
47080;BME280;33067;49.296;14.470;2023-02-14T02:29:35;98893.93;;;2.97;41.69
47080;BME280;33067;49.296;14.470;2023-02-14T02:34:21;98895.59;;;3.28;41.53
47080;BME280;33067;49.296;14.470;2023-02-14T02:39:05;98891.24;;;3.18;41.24
47080;BME280;33067;49.296;14.470;2023-02-14T02:41:25;98886.22;;;3.46;41.27
47080;BME280;33067;49.296;14.470;2023-02-14T02:43:52;98883.67;;;3.49;41.54
47080;BME280;33067;49.296;14.470;2023-02-14T02:46:15;98883.80;;;3.43;41.93
47080;BME280;33067;49.296;14.470;2023-02-14T02:48:41;98878.57;;;3.30;41.44
47080;BME280;33067;49.296;14.470;2023-02-14T02:51:06;98884.93;;;3.28;42.12
47080;BME280;33067;49.296;14.470;2023-02-14T02:53:31;98881.51;;;3.43;41.63
47080;BME280;33067;49.296;14.470;2023-02-14T02:55:57;98883.65;;;3.01;42.36
47080;BME280;33067;49.296;14.470;2023-02-14T02:58:20;98886.76;;;3.33;41.82
47080;BME280;33067;49.296;14.470;2023-02-14T03:00:43;98884.96;;;3.28;41.78
47080;BME280;33067;49.296;14.470;2023-02-14T03:03:09;98883.06;;;3.25;41.93
47080;BME280;33067;49.296;14.470;2023-02-14T03:05:35;98883.59;;;3.24;42.14
47080;BME280;33067;49.296;14.470;2023-02-14T03:08:00;98887.49;;;3.27;42.20
47080;BME280;33067;49.296;14.470;2023-02-14T03:15:40;98886.55;;;3.93;40.60
47080;BME280;33067;49.296;14.470;2023-02-14T03:17:58;98887.85;;;3.93;41.21
47080;BME280;33067;49.296;14.470;2023-02-14T03:20:22;98889.87;;;3.79;41.45
47080;BME280;33067;49.296;14.470;2023-02-14T03:22:50;98888.13;;;3.31;41.80
47080;BME280;33067;49.296;14.470;2023-02-14T03:25:15;98885.63;;;3.46;42.09
47080;BME280;33067;49.296;14.470;2023-02-14T03:27:34;98884.16;;;3.40;42.18
47080;BME280;33067;49.296;14.470;2023-02-14T03:30:04;98878.57;;;3.65;42.39
47080;BME280;33067;49.296;14.470;2023-02-14T03:32:30;98875.07;;;3.65;42.58
47080;BME280;33067;49.296;14.470;2023-02-14T03:34:55;98876.34;;;3.66;42.63
47080;BME280;33067;49.296;14.470;2023-02-14T03:37:16;98876.60;;;3.71;42.66
47080;BME280;33067;49.296;14.470;2023-02-14T03:39:42;98875.91;;;3.57;42.62
47080;BME280;33067;49.296;14.470;2023-02-14T03:42:10;98874.29;;;3.72;42.41
47080;BME280;33067;49.296;14.470;2023-02-14T03:44:31;98874.19;;;3.75;42.46
47080;BME280;33067;49.296;14.470;2023-02-14T03:47:00;98878.69;;;3.65;42.53
47080;BME280;33067;49.296;14.470;2023-02-14T03:49:25;98875.93;;;3.62;42.24
47080;BME280;33067;49.296;14.470;2023-02-14T03:51:48;98876.84;;;4.06;42.50
47080;BME280;33067;49.296;14.470;2023-02-14T03:54:13;98876.53;;;4.10;42.42
47080;BME280;33067;49.296;14.470;2023-02-14T03:56:41;98882.42;;;3.91;42.30
47080;BME280;33067;49.296;14.470;2023-02-14T03:59:09;98881.92;;;4.02;42.56
47080;BME280;33067;49.296;14.470;2023-02-14T04:01:31;98884.15;;;3.73;42.76
47080;BME280;33067;49.296;14.470;2023-02-14T04:03:56;98882.63;;;3.89;42.55
47080;BME280;33067;49.296;14.470;2023-02-14T04:06:19;98888.97;;;3.65;42.57
47080;BME280;33067;49.296;14.470;2023-02-14T04:08:45;98890.21;;;3.90;42.66
47080;BME280;33067;49.296;14.470;2023-02-14T04:11:12;98889.08;;;4.03;42.61
47080;BME280;33067;49.296;14.470;2023-02-14T04:13:36;98889.94;;;4.34;42.62
47080;BME280;33067;49.296;14.470;2023-02-14T04:16:00;98884.19;;;4.17;42.67
47080;BME280;33067;49.296;14.470;2023-02-14T04:18:25;98887.13;;;4.01;42.43
47080;BME280;33067;49.296;14.470;2023-02-14T04:20:52;98885.59;;;3.94;42.61
47080;BME280;33067;49.296;14.470;2023-02-14T04:23:16;98885.31;;;4.35;42.29
47080;BME280;33067;49.296;14.470;2023-02-14T04:25:43;98882.43;;;3.88;42.98
47080;BME280;33067;49.296;14.470;2023-02-14T04:28:08;98878.10;;;3.96;43.00
47080;BME280;33067;49.296;14.470;2023-02-14T04:30:33;98879.53;;;4.35;42.59
47080;BME280;33067;49.296;14.470;2023-02-14T04:32:58;98877.56;;;4.05;42.91
47080;BME280;33067;49.296;14.470;2023-02-14T04:35:24;98875.58;;;4.03;42.93
47080;BME280;33067;49.296;14.470;2023-02-14T04:37:49;98874.00;;;4.22;42.59
47080;BME280;33067;49.296;14.470;2023-02-14T04:40:15;98869.75;;;4.12;42.72
47080;BME280;33067;49.296;14.470;2023-02-14T04:42:40;98870.98;;;4.07;42.95
47080;BME280;33067;49.296;14.470;2023-02-14T04:45:06;98866.67;;;3.93;43.02
47080;BME280;33067;49.296;14.470;2023-02-14T04:47:32;98866.74;;;4.12;42.98
47080;BME280;33067;49.296;14.470;2023-02-14T04:49:57;98866.53;;;4.00;43.24
47080;BME280;33067;49.296;14.470;2023-02-14T04:52:22;98867.66;;;4.09;43.15
47080;BME280;33067;49.296;14.470;2023-02-14T04:54:47;98864.11;;;4.07;42.96
47080;BME280;33067;49.296;14.470;2023-02-14T04:57:13;98863.08;;;4.04;42.74
47080;BME280;33067;49.296;14.470;2023-02-14T04:59:39;98863.98;;;3.56;43.64
47080;BME280;33067;49.296;14.470;2023-02-14T05:02:03;98864.13;;;3.92;43.37
47080;BME280;33067;49.296;14.470;2023-02-14T05:04:29;98863.26;;;3.65;43.83
47080;BME280;33067;49.296;14.470;2023-02-14T05:06:55;98869.40;;;3.80;43.74
47080;BME280;33067;49.296;14.470;2023-02-14T05:09:20;98867.94;;;4.27;43.61
47080;BME280;33067;49.296;14.470;2023-02-14T05:11:46;98869.82;;;4.31;43.00
47080;BME280;33067;49.296;14.470;2023-02-14T05:14:11;98876.16;;;4.22;43.04
47080;BME280;33067;49.296;14.470;2023-02-14T05:16:37;98876.63;;;4.28;42.89
47080;BME280;33067;49.296;14.470;2023-02-14T05:19:03;98875.15;;;4.11;43.35
47080;BME280;33067;49.296;14.470;2023-02-14T05:21:28;98871.06;;;4.05;43.47
47080;BME280;33067;49.296;14.470;2023-02-14T05:23:56;98869.75;;;4.29;43.07
47080;BME280;33067;49.296;14.470;2023-02-14T05:26:19;98867.68;;;4.51;42.71
47080;BME280;33067;49.296;14.470;2023-02-14T05:28:45;98859.42;;;4.51;42.71
47080;BME280;33067;49.296;14.470;2023-02-14T05:31:10;98854.73;;;4.34;42.95
47080;BME280;33067;49.296;14.470;2023-02-14T05:33:35;98853.98;;;4.38;43.13
47080;BME280;33067;49.296;14.470;2023-02-14T05:36:01;98858.26;;;3.97;43.16
47080;BME280;33067;49.296;14.470;2023-02-14T05:38:27;98857.32;;;3.89;43.61
47080;BME280;33067;49.296;14.470;2023-02-14T05:40:52;98856.71;;;3.52;44.50
47080;BME280;33067;49.296;14.470;2023-02-14T05:43:18;98856.75;;;3.47;44.74
47080;BME280;33067;49.296;14.470;2023-02-14T05:45:43;98854.19;;;3.69;44.61
47080;BME280;33067;49.296;14.470;2023-02-14T05:48:10;98853.83;;;3.94;44.31
47080;BME280;33067;49.296;14.470;2023-02-14T05:50:35;98858.33;;;4.52;43.79
47080;BME280;33067;49.296;14.470;2023-02-14T05:53:00;98860.85;;;4.37;43.02
47080;BME280;33067;49.296;14.470;2023-02-14T05:55:24;98861.31;;;4.36;43.40
47080;BME280;33067;49.296;14.470;2023-02-14T05:57:50;98862.27;;;4.31;43.34
47080;BME280;33067;49.296;14.470;2023-02-14T06:00:17;98860.03;;;4.50;43.58
47080;BME280;33067;49.296;14.470;2023-02-14T06:02:41;98853.07;;;4.41;43.40
47080;BME280;33067;49.296;14.470;2023-02-14T06:05:07;98855.05;;;4.45;43.48
47080;BME280;33067;49.296;14.470;2023-02-14T06:07:32;98861.13;;;4.31;43.28
47080;BME280;33067;49.296;14.470;2023-02-14T06:09:58;98860.64;;;4.41;43.56
47080;BME280;33067;49.296;14.470;2023-02-14T06:12:24;98861.78;;;4.52;43.05
47080;BME280;33067;49.296;14.470;2023-02-14T06:14:49;98865.25;;;4.25;43.62
47080;BME280;33067;49.296;14.470;2023-02-14T06:17:15;98864.91;;;3.76;44.02
47080;BME280;33067;49.296;14.470;2023-02-14T06:19:40;98862.24;;;4.49;43.59
47080;BME280;33067;49.296;14.470;2023-02-14T06:22:06;98864.04;;;4.51;43.77
47080;BME280;33067;49.296;14.470;2023-02-14T06:24:31;98871.37;;;4.62;43.51
47080;BME280;33067;49.296;14.470;2023-02-14T06:26:57;98873.41;;;4.32;43.53
47080;BME280;33067;49.296;14.470;2023-02-14T06:29:21;98876.27;;;4.48;43.78
47080;BME280;33067;49.296;14.470;2023-02-14T06:31:47;98881.48;;;4.57;43.48
47080;BME280;33067;49.296;14.470;2023-02-14T06:34:14;98888.53;;;4.22;43.96
47080;BME280;33067;49.296;14.470;2023-02-14T06:36:38;98888.81;;;4.25;44.39
47080;BME280;33067;49.296;14.470;2023-02-14T06:39:04;98890.63;;;4.28;44.61
47080;BME280;33067;49.296;14.470;2023-02-14T06:41:29;98890.05;;;4.28;44.16
47080;BME280;33067;49.296;14.470;2023-02-14T06:43:54;98887.08;;;4.65;44.13
47080;BME280;33067;49.296;14.470;2023-02-14T06:46:20;98885.19;;;4.62;43.51
47080;BME280;33067;49.296;14.470;2023-02-14T06:48:45;98884.60;;;5.08;43.66
47080;BME280;33067;49.296;14.470;2023-02-14T06:51:10;98878.93;;;5.10;43.74
47080;BME280;33067;49.296;14.470;2023-02-14T06:53:35;98874.68;;;4.99;43.51
47080;BME280;33067;49.296;14.470;2023-02-14T06:56:01;98871.43;;;4.95;43.24
47080;BME280;33067;49.296;14.470;2023-02-14T06:58:28;98869.14;;;4.99;43.14
47080;BME280;33067;49.296;14.470;2023-02-14T07:00:54;98865.24;;;4.59;43.63
47080;BME280;33067;49.296;14.470;2023-02-14T07:03:17;98865.82;;;5.20;43.50
47080;BME280;33067;49.296;14.470;2023-02-14T07:05:42;98867.88;;;5.30;43.42
47080;BME280;33067;49.296;14.470;2023-02-14T07:08:08;98866.60;;;4.83;43.39
47080;BME280;33067;49.296;14.470;2023-02-14T07:10:33;98865.45;;;5.52;43.15
47080;BME280;33067;49.296;14.470;2023-02-14T07:12:59;98869.43;;;5.26;42.92
47080;BME280;33067;49.296;14.470;2023-02-14T07:15:24;98870.85;;;5.09;43.41
47080;BME280;33067;49.296;14.470;2023-02-14T07:17:49;98865.01;;;5.22;43.19
47080;BME280;33067;49.296;14.470;2023-02-14T07:20:15;98867.50;;;5.06;43.21
47080;BME280;33067;49.296;14.470;2023-02-14T07:22:40;98866.45;;;5.07;43.13
47080;BME280;33067;49.296;14.470;2023-02-14T07:25:06;98865.97;;;5.09;43.15
47080;BME280;33067;49.296;14.470;2023-02-14T07:27:31;98863.81;;;5.13;43.13
47080;BME280;33067;49.296;14.470;2023-02-14T07:29:58;98858.37;;;5.38;43.20
47080;BME280;33067;49.296;14.470;2023-02-14T07:32:22;98855.28;;;5.21;43.04
47080;BME280;33067;49.296;14.470;2023-02-14T07:34:49;98856.73;;;5.26;42.90
47080;BME280;33067;49.296;14.470;2023-02-14T07:37:13;98859.46;;;5.17;42.99
47080;BME280;33067;49.296;14.470;2023-02-14T07:39:38;98859.40;;;5.18;43.04
47080;BME280;33067;49.296;14.470;2023-02-14T07:42:03;98861.30;;;4.99;43.48
47080;BME280;33067;49.296;14.470;2023-02-14T07:44:29;98860.05;;;5.10;43.46
47080;BME280;33067;49.296;14.470;2023-02-14T07:46:54;98859.24;;;5.12;43.46
47080;BME280;33067;49.296;14.470;2023-02-14T07:49:20;98854.82;;;5.70;43.27
47080;BME280;33067;49.296;14.470;2023-02-14T07:51:46;98854.59;;;5.07;43.48
47080;BME280;33067;49.296;14.470;2023-02-14T07:54:11;98852.18;;;4.96;44.26
47080;BME280;33067;49.296;14.470;2023-02-14T07:56:36;98851.28;;;4.44;44.41
47080;BME280;33067;49.296;14.470;2023-02-14T07:59:01;98848.04;;;4.55;44.35
47080;BME280;33067;49.296;14.470;2023-02-14T08:01:27;98845.54;;;4.47;44.61
47080;BME280;33067;49.296;14.470;2023-02-14T08:03:52;98848.70;;;4.73;44.38
47080;BME280;33067;49.296;14.470;2023-02-14T08:06:18;98844.36;;;5.24;44.09
47080;BME280;33067;49.296;14.470;2023-02-14T08:08:43;98840.59;;;5.36;43.43
47080;BME280;33067;49.296;14.470;2023-02-14T08:11:08;98840.46;;;5.38;43.52
47080;BME280;33067;49.296;14.470;2023-02-14T08:13:33;98837.64;;;5.45;43.43
47080;BME280;33067;49.296;14.470;2023-02-14T08:15:59;98840.11;;;5.59;43.29
47080;BME280;33067;49.296;14.470;2023-02-14T08:18:24;98836.55;;;5.72;43.17
47080;BME280;33067;49.296;14.470;2023-02-14T08:20:50;98833.51;;;5.39;42.95
47080;BME280;33067;49.296;14.470;2023-02-14T08:23:16;98833.49;;;5.79;42.71
47080;BME280;33067;49.296;14.470;2023-02-14T08:25:41;98833.46;;;6.02;42.74
47080;BME280;33067;49.296;14.470;2023-02-14T08:28:06;98834.24;;;5.87;42.75
47080;BME280;33067;49.296;14.470;2023-02-14T08:30:34;98832.33;;;6.13;42.72
47080;BME280;33067;49.296;14.470;2023-02-14T08:32:58;98834.14;;;6.02;42.63
47080;BME280;33067;49.296;14.470;2023-02-14T08:35:23;98837.26;;;5.96;42.89
47080;BME280;33067;49.296;14.470;2023-02-14T08:37:48;98842.74;;;5.36;43.19
47080;BME280;33067;49.296;14.470;2023-02-14T08:40:14;98846.59;;;5.46;43.36
47080;BME280;33067;49.296;14.470;2023-02-14T08:42:39;98845.56;;;5.85;43.04
47080;BME280;33067;49.296;14.470;2023-02-14T08:45:05;98845.61;;;5.80;42.93
47080;BME280;33067;49.296;14.470;2023-02-14T08:47:32;98841.21;;;6.13;42.84
47080;BME280;33067;49.296;14.470;2023-02-14T08:49:56;98842.66;;;6.34;42.49
47080;BME280;33067;49.296;14.470;2023-02-14T08:52:21;98841.94;;;5.89;42.97
47080;BME280;33067;49.296;14.470;2023-02-14T08:54:47;98843.84;;;6.22;42.47
47080;BME280;33067;49.296;14.470;2023-02-14T08:57:12;98844.58;;;6.04;42.42
47080;BME280;33067;49.296;14.470;2023-02-14T08:59:37;98845.57;;;6.20;42.74
47080;BME280;33067;49.296;14.470;2023-02-14T09:02:02;98849.77;;;6.37;42.47
47080;BME280;33067;49.296;14.470;2023-02-14T09:04:27;98853.65;;;6.28;42.37
47080;BME280;33067;49.296;14.470;2023-02-14T09:06:54;98853.79;;;6.25;42.26
47080;BME280;33067;49.296;14.470;2023-02-14T09:09:19;98850.00;;;6.13;43.27
47080;BME280;33067;49.296;14.470;2023-02-14T09:11:44;98850.12;;;6.05;43.11
47080;BME280;33067;49.296;14.470;2023-02-14T09:14:10;98850.12;;;6.16;43.07
47080;BME280;33067;49.296;14.470;2023-02-14T09:16:37;98850.26;;;6.28;42.99
47080;BME280;33067;49.296;14.470;2023-02-14T09:19:01;98851.53;;;6.29;43.11
47080;BME280;33067;49.296;14.470;2023-02-14T09:21:27;98854.45;;;6.18;43.38
47080;BME280;33067;49.296;14.470;2023-02-14T09:23:54;98859.80;;;6.17;43.05
47080;BME280;33067;49.296;14.470;2023-02-14T09:26:18;98861.07;;;6.16;43.48
47080;BME280;33067;49.296;14.470;2023-02-14T09:28:45;98859.91;;;6.36;43.19
47080;BME280;33067;49.296;14.470;2023-02-14T09:31:09;98864.34;;;6.31;43.46
47080;BME280;33067;49.296;14.470;2023-02-14T09:33:34;98865.08;;;6.28;43.18
47080;BME280;33067;49.296;14.470;2023-02-14T09:36:02;98862.06;;;6.13;42.92
47080;BME280;33067;49.296;14.470;2023-02-14T09:38:25;98862.02;;;6.41;43.00
47080;BME280;33067;49.296;14.470;2023-02-14T09:40:51;98857.52;;;6.85;42.75
47080;BME280;33067;49.296;14.470;2023-02-14T09:43:24;98860.88;;;6.69;43.15
47080;BME280;33067;49.296;14.470;2023-02-14T09:45:49;98860.13;;;6.47;43.24
47080;BME280;33067;49.296;14.470;2023-02-14T09:48:13;98861.99;;;6.23;43.39
47080;BME280;33067;49.296;14.470;2023-02-14T09:50:38;98864.17;;;6.39;43.72
47080;BME280;33067;49.296;14.470;2023-02-14T09:53:01;98860.08;;;6.64;43.45
47080;BME280;33067;49.296;14.470;2023-02-14T09:55:28;98859.73;;;6.63;43.21
47080;BME280;33067;49.296;14.470;2023-02-14T09:57:59;98859.68;;;6.82;43.13
47080;BME280;33067;49.296;14.470;2023-02-14T10:00:21;98856.92;;;6.51;43.30
47080;BME280;33067;49.296;14.470;2023-02-14T10:02:47;98854.33;;;6.79;43.17
47080;BME280;33067;49.296;14.470;2023-02-14T10:05:11;98854.66;;;6.60;42.77
47080;BME280;33067;49.296;14.470;2023-02-14T10:07:38;98848.70;;;6.97;42.50
47080;BME280;33067;49.296;14.470;2023-02-14T10:10:01;98847.77;;;7.41;41.99
47080;BME280;33067;49.296;14.470;2023-02-14T10:12:30;98850.30;;;6.95;42.20
47080;BME280;33067;49.296;14.470;2023-02-14T10:14:49;98850.60;;;7.35;41.69
47080;BME280;33067;49.296;14.470;2023-02-14T10:17:17;98848.38;;;7.35;41.79
47080;BME280;33067;49.296;14.470;2023-02-14T10:19:43;98845.31;;;7.65;41.56
47080;BME280;33067;49.296;14.470;2023-02-14T10:22:09;98845.96;;;8.00;40.94
47080;BME280;33067;49.296;14.470;2023-02-14T10:24:34;98849.34;;;8.04;41.03
47080;BME280;33067;49.296;14.470;2023-02-14T10:27:02;98848.96;;;7.82;41.34
47080;BME280;33067;49.296;14.470;2023-02-14T10:29:21;98850.71;;;7.98;41.22
47080;BME280;33067;49.296;14.470;2023-02-14T10:31:51;98846.31;;;8.13;41.13
47080;BME280;33067;49.296;14.470;2023-02-14T10:34:15;98845.14;;;8.12;40.76
47080;BME280;33067;49.296;14.470;2023-02-14T10:36:49;98843.19;;;8.28;40.98
47080;BME280;33067;49.296;14.470;2023-02-14T10:39:14;98840.92;;;7.99;41.32
47080;BME280;33067;49.296;14.470;2023-02-14T10:41:37;98839.54;;;7.41;41.68
47080;BME280;33067;49.296;14.470;2023-02-14T10:44:02;98839.05;;;8.04;41.15
47080;BME280;33067;49.296;14.470;2023-02-14T10:46:28;98841.56;;;8.12;40.68
47080;BME280;33067;49.296;14.470;2023-02-14T10:48:50;98838.85;;;8.17;40.36
47080;BME280;33067;49.296;14.470;2023-02-14T10:51:15;98841.29;;;7.98;40.56
47080;BME280;33067;49.296;14.470;2023-02-14T10:53:42;98838.49;;;7.93;40.79
47080;BME280;33067;49.296;14.470;2023-02-14T10:56:04;98838.85;;;8.08;41.03
47080;BME280;33067;49.296;14.470;2023-02-14T10:58:30;98836.05;;;8.54;40.89
47080;BME280;33067;49.296;14.470;2023-02-14T11:00:57;98831.38;;;8.16;40.61
47080;BME280;33067;49.296;14.470;2023-02-14T11:03:18;98830.53;;;8.22;41.10
47080;BME280;33067;49.296;14.470;2023-02-14T11:05:45;98828.58;;;7.99;40.73
47080;BME280;33067;49.296;14.470;2023-02-14T11:08:14;98827.61;;;8.08;41.39
47080;BME280;33067;49.296;14.470;2023-02-14T11:10:33;98825.80;;;8.03;41.59
47080;BME280;33067;49.296;14.470;2023-02-14T11:12:59;98823.60;;;7.71;41.47
47080;BME280;33067;49.296;14.470;2023-02-14T11:15:29;98817.87;;;8.05;41.12
47080;BME280;33067;49.296;14.470;2023-02-14T11:17:50;98815.18;;;8.13;41.04
47080;BME280;33067;49.296;14.470;2023-02-14T11:20:23;98815.22;;;8.16;41.19
47080;BME280;33067;49.296;14.470;2023-02-14T11:22:40;98808.44;;;8.51;41.22
47080;BME280;33067;49.296;14.470;2023-02-14T11:25:16;98808.21;;;8.45;41.06
47080;BME280;33067;49.296;14.470;2023-02-14T11:27:31;98807.06;;;8.36;40.80
47080;BME280;33067;49.296;14.470;2023-02-14T11:29:58;98805.85;;;8.54;40.44
47080;BME280;33067;49.296;14.470;2023-02-14T11:32:23;98804.73;;;8.35;40.06
47080;BME280;33067;49.296;14.470;2023-02-14T11:34:53;98803.01;;;8.17;40.47
47080;BME280;33067;49.296;14.470;2023-02-14T11:39:39;98805.06;;;8.16;40.41
47080;BME280;33067;49.296;14.470;2023-02-14T11:42:05;98804.57;;;8.38;40.29
47080;BME280;33067;49.296;14.470;2023-02-14T11:44:31;98802.75;;;8.49;39.96
47080;BME280;33067;49.296;14.470;2023-02-14T11:46:56;98806.79;;;7.57;40.96
47080;BME280;33067;49.296;14.470;2023-02-14T11:49:25;98805.70;;;7.89;40.78
47080;BME280;33067;49.296;14.470;2023-02-14T11:51:46;98808.84;;;7.51;41.72
47080;BME280;33067;49.296;14.470;2023-02-14T11:54:21;98808.60;;;7.99;40.94
47080;BME280;33067;49.296;14.470;2023-02-14T11:56:47;98808.32;;;7.47;41.47
47080;BME280;33067;49.296;14.470;2023-02-14T11:59:03;98801.95;;;8.16;40.42
47080;BME280;33067;49.296;14.470;2023-02-14T12:01:29;98803.28;;;7.85;40.95
47080;BME280;33067;49.296;14.470;2023-02-14T12:03:55;98798.19;;;7.85;40.84
47080;BME280;33067;49.296;14.470;2023-02-14T12:06:23;98793.04;;;8.19;40.15
47080;BME280;33067;49.296;14.470;2023-02-14T12:08:43;98787.56;;;8.22;39.90
47080;BME280;33067;49.296;14.470;2023-02-14T12:11:18;98790.14;;;7.36;41.51
47080;BME280;33067;49.296;14.470;2023-02-14T12:13:33;98788.79;;;7.62;41.84
47080;BME280;33067;49.296;14.470;2023-02-14T12:15:59;98787.43;;;7.27;41.17
47080;BME280;33067;49.296;14.470;2023-02-14T12:18:35;98783.86;;;7.58;40.97
47080;BME280;33067;49.296;14.470;2023-02-14T12:20:55;98779.35;;;8.28;40.18
47080;BME280;33067;49.296;14.470;2023-02-14T12:23:19;98776.61;;;7.97;40.61
47080;BME280;33067;49.296;14.470;2023-02-14T12:25:47;98773.68;;;7.61;41.07
47080;BME280;33067;49.296;14.470;2023-02-14T12:28:11;98770.32;;;7.64;41.12
47080;BME280;33067;49.296;14.470;2023-02-14T12:30:33;98767.09;;;7.82;40.58
47080;BME280;33067;49.296;14.470;2023-02-14T12:32:57;98762.13;;;7.73;40.44
47080;BME280;33067;49.296;14.470;2023-02-14T12:35:34;98757.80;;;8.44;39.66
47080;BME280;33067;49.296;14.470;2023-02-14T12:37:57;98758.70;;;8.81;39.34
47080;BME280;33067;49.296;14.470;2023-02-14T12:40:21;98756.81;;;9.09;39.04
47080;BME280;33067;49.296;14.470;2023-02-14T12:42:51;98757.69;;;8.15;39.73
47080;BME280;33067;49.296;14.470;2023-02-14T12:45:09;98757.96;;;8.04;40.31
47080;BME280;33067;49.296;14.470;2023-02-14T12:47:35;98753.19;;;8.45;39.81
47080;BME280;33067;49.296;14.470;2023-02-14T12:50:17;98750.27;;;8.45;39.62
47080;BME280;33067;49.296;14.470;2023-02-14T12:52:30;98757.12;;;8.12;40.25
47080;BME280;33067;49.296;14.470;2023-02-14T12:54:56;98752.69;;;8.21;39.79
47080;BME280;33067;49.296;14.470;2023-02-14T12:57:20;98758.60;;;8.05;40.38
47080;BME280;33067;49.296;14.470;2023-02-14T12:59:42;98754.33;;;8.04;40.43
47080;BME280;33067;49.296;14.470;2023-02-14T13:02:23;98745.71;;;8.48;39.98
47080;BME280;33067;49.296;14.470;2023-02-14T13:06:55;98746.18;;;9.08;39.20
47080;BME280;33067;49.296;14.470;2023-02-14T13:09:28;98741.02;;;9.00;38.90